CEB494 RPVI-RPLL
Flight info
| Callsign | CEB494 |
|---|---|
| Flight time | 0h 45m |
| Altitude | 34000 |
| Route | LAMBO1N LAMBO B472 IBAGO IBAGO5R |
| Aircraft | A20N/M-SDE2E3FGHIJ1RWXY/LB1 |
Departure
| Time | 2026-04-18 05:28 |
|---|---|
| Airport | Iloilo International Airport (RPVI) |
Arrival
| Time | 2026-04-18 06:13 |
|---|---|
| Airport | Ninoy Aquino International Airport (RPLL) |
| Time | Latitude | Longitude | Altitude | Speed | Heading |
|---|---|---|---|---|---|
| 2026-04-18 04:50 | 10.83053 | 122.49629 | 175 ft | 0 kts | 110° |
| 2026-04-18 05:17 | 10.83054 | 122.49627 | 175 ft | 2 kts | 109° |
| 2026-04-18 05:17 | 10.83058 | 122.49612 | 175 ft | 2 kts | 110° |
| 2026-04-18 05:17 | 10.83064 | 122.49598 | 175 ft | 2 kts | 109° |
| 2026-04-18 05:17 | 10.83069 | 122.49584 | 175 ft | 2 kts | 110° |
| 2026-04-18 05:18 | 10.83074 | 122.49570 | 175 ft | 2 kts | 110° |
| 2026-04-18 05:18 | 10.83080 | 122.49556 | 175 ft | 2 kts | 142° |
| 2026-04-18 05:18 | 10.83094 | 122.49551 | 175 ft | 2 kts | 184° |
| 2026-04-18 05:18 | 10.83109 | 122.49556 | 175 ft | 2 kts | 205° |
| 2026-04-18 05:19 | 10.83120 | 122.49560 | 175 ft | 0 kts | 198° |
| 2026-04-18 05:19 | 10.83122 | 122.49560 | 175 ft | 0 kts | 198° |
| 2026-04-18 05:23 | 10.83111 | 122.49557 | 175 ft | 3 kts | 198° |
| 2026-04-18 05:23 | 10.83074 | 122.49543 | 175 ft | 7 kts | 200° |
| 2026-04-18 05:23 | 10.83029 | 122.49498 | 175 ft | 11 kts | 261° |
| 2026-04-18 05:23 | 10.83050 | 122.49418 | 175 ft | 12 kts | 291° |
| 2026-04-18 05:24 | 10.83082 | 122.49335 | 175 ft | 13 kts | 289° |
| 2026-04-18 05:24 | 10.83066 | 122.49250 | 175 ft | 13 kts | 211° |
| 2026-04-18 05:24 | 10.82974 | 122.49215 | 176 ft | 15 kts | 200° |
| 2026-04-18 05:24 | 10.82861 | 122.49173 | 175 ft | 18 kts | 200° |
| 2026-04-18 05:25 | 10.82731 | 122.49125 | 176 ft | 20 kts | 199° |
| 2026-04-18 05:25 | 10.82590 | 122.49071 | 175 ft | 22 kts | 200° |
| 2026-04-18 05:25 | 10.82444 | 122.49018 | 176 ft | 19 kts | 199° |
| 2026-04-18 05:25 | 10.82338 | 122.48981 | 175 ft | 10 kts | 187° |
| 2026-04-18 05:26 | 10.82269 | 122.48987 | 175 ft | 9 kts | 193° |
| 2026-04-18 05:26 | 10.82249 | 122.48955 | 175 ft | 4 kts | 305° |
| 2026-04-18 05:26 | 10.82269 | 122.48955 | 176 ft | 1 kts | 20° |
| 2026-04-18 05:27 | 10.82301 | 122.48968 | 176 ft | 21 kts | 20° |
| 2026-04-18 05:27 | 10.82702 | 122.49114 | 176 ft | 97 kts | 20° |
| 2026-04-18 05:28 | 10.83555 | 122.49426 | 241 ft | 149 kts | 19° |
| 2026-04-18 05:28 | 10.84497 | 122.49775 | 893 ft | 144 kts | 18° |
| 2026-04-18 05:28 | 10.85442 | 122.50121 | 1533 ft | 146 kts | 18° |
| 2026-04-18 05:28 | 10.86394 | 122.50471 | 2140 ft | 146 kts | 19° |
| 2026-04-18 05:29 | 10.87354 | 122.50822 | 2695 ft | 147 kts | 20° |
| 2026-04-18 05:29 | 10.88307 | 122.51174 | 3233 ft | 149 kts | 20° |
| 2026-04-18 05:29 | 10.89311 | 122.51546 | 3663 ft | 160 kts | 20° |
| 2026-04-18 05:29 | 10.90412 | 122.51954 | 4022 ft | 178 kts | 21° |
| 2026-04-18 05:30 | 10.91640 | 122.52408 | 4443 ft | 195 kts | 20° |
| 2026-04-18 05:30 | 10.93045 | 122.52576 | 4830 ft | 216 kts | 349° |
| 2026-04-18 05:30 | 10.94428 | 122.51808 | 5163 ft | 243 kts | 323° |
| 2026-04-18 05:30 | 10.95803 | 122.50687 | 5660 ft | 261 kts | 324° |
| 2026-04-18 05:31 | 10.97283 | 122.49535 | 6163 ft | 278 kts | 325° |
| 2026-04-18 05:31 | 10.98847 | 122.48335 | 6864 ft | 286 kts | 325° |
| 2026-04-18 05:31 | 11.00447 | 122.47115 | 7686 ft | 289 kts | 324° |
| 2026-04-18 05:31 | 11.02064 | 122.45882 | 8483 ft | 292 kts | 324° |
| 2026-04-18 05:32 | 11.03691 | 122.44640 | 9242 ft | 295 kts | 325° |
| 2026-04-18 05:32 | 11.05331 | 122.43390 | 9962 ft | 299 kts | 325° |
| 2026-04-18 05:32 | 11.07017 | 122.42106 | 10596 ft | 305 kts | 324° |
| 2026-04-18 05:32 | 11.08762 | 122.40778 | 10946 ft | 322 kts | 324° |
| 2026-04-18 05:33 | 11.10597 | 122.39381 | 11423 ft | 333 kts | 324° |
| 2026-04-18 05:33 | 11.12455 | 122.37963 | 12116 ft | 336 kts | 324° |
| 2026-04-18 05:33 | 11.14333 | 122.36537 | 12823 ft | 337 kts | 325° |
| 2026-04-18 05:33 | 11.16314 | 122.35232 | 13493 ft | 339 kts | 331° |
| 2026-04-18 05:34 | 11.18396 | 122.34144 | 14134 ft | 341 kts | 337° |
| 2026-04-18 05:34 | 11.20583 | 122.33174 | 14756 ft | 343 kts | 338° |
| 2026-04-18 05:34 | 11.22786 | 122.32224 | 15364 ft | 346 kts | 339° |
| 2026-04-18 05:34 | 11.25021 | 122.31261 | 15952 ft | 349 kts | 339° |
| 2026-04-18 05:35 | 11.27277 | 122.30290 | 16523 ft | 352 kts | 339° |
| 2026-04-18 05:35 | 11.29533 | 122.29317 | 17071 ft | 355 kts | 339° |
| 2026-04-18 05:35 | 11.31837 | 122.28320 | 17621 ft | 358 kts | 339° |
| 2026-04-18 05:35 | 11.34129 | 122.27330 | 18129 ft | 362 kts | 339° |
| 2026-04-18 05:36 | 11.36481 | 122.26312 | 18628 ft | 365 kts | 339° |
| 2026-04-18 05:36 | 11.38814 | 122.25303 | 19101 ft | 369 kts | 339° |
| 2026-04-18 05:36 | 11.41211 | 122.24264 | 19574 ft | 373 kts | 338° |
| 2026-04-18 05:36 | 11.43601 | 122.23229 | 20039 ft | 376 kts | 338° |
| 2026-04-18 05:37 | 11.46042 | 122.22169 | 20500 ft | 380 kts | 338° |
| 2026-04-18 05:37 | 11.48478 | 122.21113 | 20955 ft | 383 kts | 338° |
| 2026-04-18 05:37 | 11.50955 | 122.20039 | 21415 ft | 387 kts | 338° |
| 2026-04-18 05:37 | 11.53422 | 122.18967 | 21857 ft | 390 kts | 338° |
| 2026-04-18 05:38 | 11.55935 | 122.17876 | 22289 ft | 393 kts | 338° |
| 2026-04-18 05:38 | 11.58467 | 122.16777 | 22732 ft | 397 kts | 338° |
| 2026-04-18 05:38 | 11.61026 | 122.15665 | 23180 ft | 400 kts | 338° |
| 2026-04-18 05:38 | 11.63610 | 122.14543 | 23630 ft | 403 kts | 338° |
| 2026-04-18 05:39 | 11.66179 | 122.13428 | 24077 ft | 406 kts | 338° |
| 2026-04-18 05:39 | 11.68794 | 122.12291 | 24516 ft | 409 kts | 338° |
| 2026-04-18 05:39 | 11.71453 | 122.11136 | 24951 ft | 411 kts | 338° |
| 2026-04-18 05:39 | 11.74066 | 122.10000 | 25372 ft | 414 kts | 338° |
| 2026-04-18 05:40 | 11.76757 | 122.08830 | 25799 ft | 417 kts | 337° |
| 2026-04-18 05:40 | 11.79420 | 122.07671 | 26211 ft | 419 kts | 337° |
| 2026-04-18 05:40 | 11.82119 | 122.06496 | 26611 ft | 422 kts | 337° |
| 2026-04-18 05:40 | 11.84811 | 122.05325 | 26996 ft | 424 kts | 337° |
| 2026-04-18 05:41 | 11.87546 | 122.04136 | 27376 ft | 427 kts | 337° |
| 2026-04-18 05:41 | 11.90294 | 122.02940 | 27734 ft | 429 kts | 337° |
| 2026-04-18 05:41 | 11.93057 | 122.01738 | 28100 ft | 432 kts | 337° |
| 2026-04-18 05:41 | 11.95819 | 122.00535 | 28454 ft | 433 kts | 336° |
| 2026-04-18 05:42 | 11.98599 | 121.99324 | 28790 ft | 436 kts | 336° |
| 2026-04-18 05:42 | 12.01413 | 121.98096 | 29111 ft | 438 kts | 336° |
| 2026-04-18 05:42 | 12.04240 | 121.96864 | 29424 ft | 441 kts | 336° |
| 2026-04-18 05:42 | 12.07074 | 121.95628 | 29736 ft | 443 kts | 336° |
| 2026-04-18 05:43 | 12.09904 | 121.94394 | 30123 ft | 443 kts | 337° |
| 2026-04-18 05:43 | 12.12775 | 121.93143 | 30567 ft | 441 kts | 336° |
| 2026-04-18 05:43 | 12.15593 | 121.91914 | 30997 ft | 439 kts | 336° |
| 2026-04-18 05:43 | 12.18406 | 121.90686 | 31397 ft | 438 kts | 336° |
| 2026-04-18 05:44 | 12.21199 | 121.89468 | 31784 ft | 437 kts | 336° |
| 2026-04-18 05:44 | 12.23983 | 121.88253 | 32174 ft | 436 kts | 336° |
| 2026-04-18 05:44 | 12.26799 | 121.87024 | 32532 ft | 436 kts | 336° |
| 2026-04-18 05:44 | 12.29584 | 121.85808 | 32854 ft | 437 kts | 336° |
| 2026-04-18 05:45 | 12.32418 | 121.84570 | 33167 ft | 438 kts | 336° |
| 2026-04-18 05:45 | 12.35214 | 121.83348 | 33479 ft | 439 kts | 336° |
| 2026-04-18 05:45 | 12.38021 | 121.82122 | 33808 ft | 440 kts | 336° |
| 2026-04-18 05:45 | 12.40868 | 121.80876 | 33887 ft | 441 kts | 336° |
| 2026-04-18 05:46 | 12.46500 | 121.78410 | 33893 ft | 442 kts | 336° |
| 2026-04-18 05:46 | 12.52188 | 121.75919 | 33893 ft | 441 kts | 336° |
| 2026-04-18 05:47 | 12.57838 | 121.73443 | 33891 ft | 442 kts | 336° |
| 2026-04-18 05:47 | 12.63482 | 121.70969 | 33887 ft | 441 kts | 336° |
| 2026-04-18 05:48 | 12.69131 | 121.68491 | 33885 ft | 441 kts | 336° |
| 2026-04-18 05:48 | 12.74777 | 121.66014 | 33750 ft | 442 kts | 336° |
| 2026-04-18 05:49 | 12.77637 | 121.64758 | 33451 ft | 441 kts | 336° |
| 2026-04-18 05:49 | 12.80440 | 121.63528 | 33059 ft | 438 kts | 336° |
| 2026-04-18 05:49 | 12.83243 | 121.62296 | 32566 ft | 436 kts | 336° |
| 2026-04-18 05:49 | 12.86001 | 121.61085 | 32020 ft | 435 kts | 336° |
| 2026-04-18 05:50 | 12.88812 | 121.59849 | 31417 ft | 435 kts | 336° |
| 2026-04-18 05:50 | 12.91582 | 121.58631 | 30800 ft | 436 kts | 336° |
| 2026-04-18 05:50 | 12.94373 | 121.57403 | 30163 ft | 437 kts | 336° |
| 2026-04-18 05:50 | 12.97162 | 121.56176 | 29515 ft | 438 kts | 337° |
| 2026-04-18 05:51 | 12.99987 | 121.54932 | 28852 ft | 439 kts | 337° |
| 2026-04-18 05:51 | 13.02795 | 121.53696 | 28365 ft | 436 kts | 337° |
| 2026-04-18 05:51 | 13.05558 | 121.52481 | 27914 ft | 432 kts | 337° |
| 2026-04-18 05:51 | 13.08314 | 121.51271 | 27445 ft | 428 kts | 337° |
| 2026-04-18 05:52 | 13.11045 | 121.50072 | 26977 ft | 425 kts | 337° |
| 2026-04-18 05:52 | 13.13769 | 121.48873 | 26514 ft | 422 kts | 337° |
| 2026-04-18 05:52 | 13.16474 | 121.47682 | 26060 ft | 418 kts | 337° |
| 2026-04-18 05:52 | 13.19129 | 121.46512 | 25602 ft | 415 kts | 337° |
| 2026-04-18 05:53 | 13.21808 | 121.45329 | 25130 ft | 412 kts | 337° |
| 2026-04-18 05:53 | 13.24404 | 121.44183 | 24672 ft | 409 kts | 337° |
| 2026-04-18 05:53 | 13.27018 | 121.43030 | 24208 ft | 407 kts | 337° |
| 2026-04-18 05:53 | 13.29619 | 121.41882 | 23738 ft | 404 kts | 337° |
| 2026-04-18 05:54 | 13.32210 | 121.40739 | 23258 ft | 402 kts | 338° |
| 2026-04-18 05:54 | 13.34760 | 121.39615 | 22784 ft | 400 kts | 338° |
| 2026-04-18 05:54 | 13.37332 | 121.38480 | 22309 ft | 397 kts | 338° |
| 2026-04-18 05:54 | 13.39841 | 121.37373 | 21848 ft | 395 kts | 338° |
| 2026-04-18 05:55 | 13.42376 | 121.36254 | 21381 ft | 393 kts | 338° |
| 2026-04-18 05:55 | 13.44890 | 121.35143 | 20914 ft | 391 kts | 338° |
| 2026-04-18 05:55 | 13.47372 | 121.34048 | 20450 ft | 389 kts | 338° |
| 2026-04-18 05:55 | 13.49866 | 121.32945 | 20140 ft | 380 kts | 338° |
| 2026-04-18 05:56 | 13.52236 | 121.31892 | 19995 ft | 368 kts | 336° |
| 2026-04-18 05:56 | 13.54433 | 121.30560 | 19870 ft | 357 kts | 324° |
| 2026-04-18 05:56 | 13.56259 | 121.28852 | 19520 ft | 355 kts | 314° |
| 2026-04-18 05:56 | 13.57905 | 121.26950 | 19115 ft | 352 kts | 313° |
| 2026-04-18 05:57 | 13.61086 | 121.23171 | 18307 ft | 347 kts | 313° |
| 2026-04-18 05:57 | 13.62659 | 121.21312 | 17928 ft | 343 kts | 313° |
| 2026-04-18 05:57 | 13.64211 | 121.19487 | 17527 ft | 340 kts | 314° |
| 2026-04-18 05:58 | 13.65776 | 121.17652 | 17152 ft | 337 kts | 314° |
| 2026-04-18 05:58 | 13.67310 | 121.15855 | 16780 ft | 334 kts | 314° |
| 2026-04-18 05:58 | 13.68847 | 121.14059 | 16370 ft | 331 kts | 314° |
| 2026-04-18 05:58 | 13.70366 | 121.12284 | 16014 ft | 328 kts | 314° |
| 2026-04-18 05:59 | 13.71866 | 121.10532 | 15646 ft | 326 kts | 314° |
| 2026-04-18 05:59 | 13.73351 | 121.08794 | 15271 ft | 323 kts | 314° |
| 2026-04-18 05:59 | 13.74838 | 121.07054 | 14888 ft | 320 kts | 314° |
| 2026-04-18 05:59 | 13.76287 | 121.05357 | 14523 ft | 317 kts | 314° |
| 2026-04-18 06:00 | 13.77748 | 121.03645 | 14174 ft | 314 kts | 314° |
| 2026-04-18 06:00 | 13.79181 | 121.01965 | 13827 ft | 312 kts | 314° |
| 2026-04-18 06:00 | 13.80613 | 121.00287 | 13477 ft | 310 kts | 314° |
| 2026-04-18 06:00 | 13.82192 | 120.98792 | 13077 ft | 304 kts | 333° |
| 2026-04-18 06:01 | 13.84149 | 120.98055 | 12737 ft | 296 kts | 354° |
| 2026-04-18 06:01 | 13.86181 | 120.97833 | 12391 ft | 293 kts | 357° |
| 2026-04-18 06:01 | 13.88213 | 120.97643 | 12022 ft | 292 kts | 357° |
| 2026-04-18 06:01 | 13.90220 | 120.97446 | 11681 ft | 291 kts | 356° |
| 2026-04-18 06:02 | 13.92252 | 120.97240 | 11319 ft | 290 kts | 356° |
| 2026-04-18 06:02 | 13.94275 | 120.97028 | 10951 ft | 289 kts | 356° |
| 2026-04-18 06:02 | 13.96263 | 120.96818 | 10583 ft | 288 kts | 356° |
| 2026-04-18 06:02 | 13.98266 | 120.96606 | 10229 ft | 287 kts | 356° |
| 2026-04-18 06:03 | 14.00278 | 120.96394 | 9886 ft | 286 kts | 356° |
| 2026-04-18 06:03 | 14.02255 | 120.96185 | 9518 ft | 286 kts | 356° |
| 2026-04-18 06:03 | 14.04241 | 120.95976 | 9171 ft | 285 kts | 356° |
| 2026-04-18 06:03 | 14.06200 | 120.95770 | 8825 ft | 284 kts | 356° |
| 2026-04-18 06:04 | 14.08166 | 120.95563 | 8475 ft | 282 kts | 356° |
| 2026-04-18 06:04 | 14.10131 | 120.95355 | 8135 ft | 281 kts | 355° |
| 2026-04-18 06:04 | 14.12085 | 120.95149 | 7805 ft | 280 kts | 355° |
| 2026-04-18 06:04 | 14.14031 | 120.94943 | 7479 ft | 277 kts | 355° |
| 2026-04-18 06:05 | 14.15934 | 120.94740 | 7377 ft | 267 kts | 354° |
| 2026-04-18 06:05 | 14.17694 | 120.94298 | 7267 ft | 258 kts | 339° |
| 2026-04-18 06:05 | 14.19291 | 120.93471 | 6981 ft | 258 kts | 332° |
| 2026-04-18 06:05 | 14.20865 | 120.92528 | 6642 ft | 258 kts | 330° |
| 2026-04-18 06:06 | 14.22406 | 120.91592 | 6350 ft | 256 kts | 331° |
| 2026-04-18 06:06 | 14.23940 | 120.90669 | 6078 ft | 254 kts | 331° |
| 2026-04-18 06:06 | 14.25469 | 120.89757 | 5873 ft | 248 kts | 331° |
| 2026-04-18 06:06 | 14.26934 | 120.88888 | 5736 ft | 239 kts | 331° |
| 2026-04-18 06:07 | 14.28373 | 120.88037 | 5561 ft | 238 kts | 331° |
| 2026-04-18 06:07 | 14.29819 | 120.87191 | 5268 ft | 238 kts | 331° |
| 2026-04-18 06:07 | 14.31260 | 120.86350 | 4977 ft | 238 kts | 331° |
| 2026-04-18 06:07 | 14.32717 | 120.85498 | 4679 ft | 237 kts | 331° |
| 2026-04-18 06:08 | 14.34147 | 120.84663 | 4395 ft | 236 kts | 331° |
| 2026-04-18 06:08 | 14.35567 | 120.83833 | 4107 ft | 234 kts | 330° |
| 2026-04-18 06:08 | 14.36992 | 120.83001 | 3803 ft | 234 kts | 330° |
| 2026-04-18 06:08 | 14.38465 | 120.82288 | 3467 ft | 236 kts | 349° |
| 2026-04-18 06:09 | 14.40067 | 120.82482 | 3131 ft | 234 kts | 31° |
| 2026-04-18 06:09 | 14.41148 | 120.83653 | 3033 ft | 219 kts | 63° |
| 2026-04-18 06:09 | 14.41793 | 120.85043 | 2978 ft | 212 kts | 67° |
| 2026-04-18 06:09 | 14.42394 | 120.86385 | 2953 ft | 199 kts | 65° |
| 2026-04-18 06:10 | 14.42992 | 120.87623 | 2777 ft | 191 kts | 64° |
| 2026-04-18 06:10 | 14.43621 | 120.88841 | 2470 ft | 190 kts | 62° |
| 2026-04-18 06:10 | 14.44257 | 120.90025 | 2198 ft | 185 kts | 62° |
| 2026-04-18 06:10 | 14.44873 | 120.91150 | 1957 ft | 172 kts | 62° |
| 2026-04-18 06:11 | 14.45449 | 120.92191 | 1721 ft | 160 kts | 62° |
| 2026-04-18 06:11 | 14.45984 | 120.93155 | 1513 ft | 151 kts | 62° |
| 2026-04-18 06:11 | 14.46504 | 120.94093 | 1362 ft | 150 kts | 61° |
| 2026-04-18 06:11 | 14.47022 | 120.95026 | 1181 ft | 150 kts | 61° |
| 2026-04-18 06:12 | 14.47545 | 120.95966 | 989 ft | 150 kts | 61° |
| 2026-04-18 06:12 | 14.48064 | 120.96903 | 782 ft | 150 kts | 62° |
| 2026-04-18 06:12 | 14.48578 | 120.97832 | 589 ft | 149 kts | 62° |
| 2026-04-18 06:12 | 14.49090 | 120.98755 | 381 ft | 147 kts | 62° |
| 2026-04-18 06:13 | 14.49600 | 120.99665 | 196 ft | 146 kts | 63° |
| 2026-04-18 06:13 | 14.50094 | 121.00565 | 82 ft | 138 kts | 61° |
| 2026-04-18 06:13 | 14.50489 | 121.01284 | 81 ft | 90 kts | 60° |
| 2026-04-18 06:13 | 14.50691 | 121.01637 | 81 ft | 27 kts | 50° |
| 2026-04-18 06:14 | 14.50813 | 121.01756 | 81 ft | 17 kts | 36° |
| 2026-04-18 06:14 | 14.50880 | 121.01789 | 81 ft | 7 kts | 342° |
| 2026-04-18 06:14 | 14.50924 | 121.01753 | 81 ft | 8 kts | 317° |
| 2026-04-18 06:14 | 14.50973 | 121.01702 | 81 ft | 11 kts | 313° |
| 2026-04-18 06:15 | 14.51042 | 121.01631 | 81 ft | 16 kts | 314° |
| 2026-04-18 06:15 | 14.51128 | 121.01541 | 81 ft | 18 kts | 316° |
| 2026-04-18 06:15 | 14.51208 | 121.01459 | 81 ft | 14 kts | 314° |
| 2026-04-18 06:15 | 14.51280 | 121.01432 | 81 ft | 11 kts | 36° |
| 2026-04-18 06:16 | 14.51338 | 121.01502 | 81 ft | 13 kts | 52° |
| 2026-04-18 06:16 | 14.51410 | 121.01532 | 81 ft | 10 kts | 331° |
| 2026-04-18 06:16 | 14.51469 | 121.01473 | 81 ft | 13 kts | 314° |
| 2026-04-18 06:16 | 14.51542 | 121.01397 | 81 ft | 16 kts | 315° |
| 2026-04-18 06:17 | 14.51627 | 121.01308 | 81 ft | 18 kts | 314° |
| 2026-04-18 06:17 | 14.51720 | 121.01211 | 81 ft | 19 kts | 314° |
| 2026-04-18 06:17 | 14.51819 | 121.01109 | 81 ft | 20 kts | 314° |
| 2026-04-18 06:17 | 14.51918 | 121.01007 | 81 ft | 19 kts | 314° |
| 2026-04-18 06:18 | 14.52014 | 121.00907 | 81 ft | 19 kts | 314° |
| 2026-04-18 06:18 | 14.52096 | 121.00823 | 81 ft | 14 kts | 315° |
| 2026-04-18 06:18 | 14.52155 | 121.00761 | 81 ft | 10 kts | 323° |
| 2026-04-18 06:18 | 14.52215 | 121.00777 | 81 ft | 7 kts | 31° |
| 2026-04-18 06:19 | 14.52263 | 121.00755 | 81 ft | 8 kts | 315° |
| 2026-04-18 06:19 | 14.52309 | 121.00708 | 81 ft | 9 kts | 315° |
| 2026-04-18 06:19 | 14.52349 | 121.00668 | 81 ft | 5 kts | 330° |
| 2026-04-18 06:19 | 14.52383 | 121.00684 | 81 ft | 5 kts | 41° |
| 2026-04-18 06:20 | 14.52402 | 121.00702 | 81 ft | 2 kts | 44° |
| 2026-04-18 06:20 | 14.52410 | 121.00710 | 81 ft | 0 kts | 44° |
| 2026-04-18 06:20 | 14.52411 | 121.00712 | 81 ft | 0 kts | 44° |